M/V Sirenuse — ZGAI6 — position and weather

sailwx.info

Track history (hours):
 
Tides and Currents Weather Stations Pressure Air Temp Water Temp Dewpoint Dewpoint Depression Visibility Wind Speed Wind Dir Waves Ship Positions

M/V Sirenuse

Last reported at 2014-Jun-16 05:32 UTC. Time now 2014-Oct-25 13:26 UTC.
Position N 42°58' W 070°24'.
Warning: this ship's position is months out of date.

Length 42 m; draft 8 m.

Type: Pleasure craft. MMSI: 319024900.

Date/timePositionNaut miles runAvg speedWind from/ knotsBaromVisibWave heightAir tempDewpointWater temp
2014-Jun-16 05:32N 42°58' W 070°24'93 9.0
2014-Jun-15 19:09N 41°28' W 070°57'15 9.5
2014-Jun-15 17:33N 41°23' W 071°16'10 9.7
2014-Jun-15 16:33N 41°21' W 071°29'9 9.2
2014-Jun-15 15:33N 41°18' W 071°41'9 9.2
2014-Jun-15 14:33N 41°16' W 071°53'8 8.2
2014-Jun-15 13:33N 41°14' W 072°03'8 8.4
2014-Jun-15 12:33N 41°12' W 072°14'9 9.3
2014-Jun-15 11:33N 41°10' W 072°26'10 9.7
2014-Jun-15 10:33N 41°08' W 072°39'10 9.9
2014-Jun-15 09:33N 41°05' W 072°51'10 9.8
2014-Jun-15 08:33N 41°03' W 073°04'10 9.9
2014-Jun-15 07:33N 41°01' W 073°17'10 9.6
2014-Jun-15 06:33N 40°58' W 073°29'66 8.1
2014-Jun-14 22:26N 39°57' W 074°02'8 9.5
2014-Jun-14 21:33N 39°49' W 074°02'7 7.5
2014-Jun-14 20:33N 39°42' W 074°06'10 9.8
2014-Jun-14 19:33N 39°33' W 074°11'  
2014-Jun-11 14:34N 26°35' W 079°45'1413.4
2014-Jun-11 13:33N 26°23' W 079°51'1313.1
2014-Jun-11 12:33N 26°12' W 079°60'9 8.9
2014-Jun-11 11:33N 26°06' W 080°07'2 1.5
2014-Jun-11 10:33N 26°08' W 080°07'0 0.0
2014-Jun-11 09:33N 26°08' W 080°07'0 0.0
2014-Jun-11 08:33N 26°08' W 080°07'0 0.0
2014-Jun-11 07:33N 26°08' W 080°07'0 0.0
2014-Jun-11 06:33N 26°08' W 080°07'0 0.0
2014-Jun-11 05:33N 26°08' W 080°07'0 0.0
2014-Jun-11 04:33N 26°08' W 080°07'0 0.0
2014-Jun-11 03:33N 26°08' W 080°07'0 0.0
2014-Jun-11 02:33N 26°08' W 080°07'0 0.0
2014-Jun-11 01:33N 26°08' W 080°07'0 0.0
2014-Jun-11 00:33N 26°08' W 080°07'0 0.0
2014-Jun-10 23:33N 26°08' W 080°07'0 0.0
2014-Jun-10 22:33N 26°08' W 080°07'0 0.0
2014-Jun-10 21:33N 26°08' W 080°07'0 0.0
2014-Jun-10 20:33N 26°08' W 080°07'0 0.0
2014-Jun-10 19:33N 26°08' W 080°07'0 0.0
2014-Jun-10 18:33N 26°08' W 080°07'0 0.0
2014-Jun-10 17:33N 26°08' W 080°07'0 0.0
2014-Jun-10 16:33N 26°08' W 080°07'0 0.0
2014-Jun-10 15:33N 26°08' W 080°07'0 0.0
2014-Jun-10 14:33N 26°08' W 080°07'0 0.0
2014-Jun-10 13:33N 26°08' W 080°07'0 0.0
2014-Jun-10 12:33N 26°08' W 080°07'0 0.0
2014-Jun-10 11:33N 26°08' W 080°07'0 0.0
2014-Jun-10 10:33N 26°08' W 080°07'0 0.0
2014-Jun-10 09:34N 26°08' W 080°07'0 0.0
2014-Jun-10 08:33N 26°08' W 080°07'0 0.0
2014-Jun-10 07:33N 26°08' W 080°07'0 0.0
2014-Jun-10 06:33N 26°08' W 080°07'0 0.0
2014-Jun-10 03:33N 26°08' W 080°07'0 0.0
2014-Jun-10 02:33N 26°08' W 080°07'0 0.0
2014-Jun-10 01:33N 26°08' W 080°07'0 0.0
2014-Jun-10 00:33N 26°08' W 080°07'0 0.0
2014-Jun-09 23:33N 26°08' W 080°07'0 0.0
2014-Jun-09 22:33N 26°08' W 080°07'0 0.0
2014-Jun-09 21:33N 26°08' W 080°07'0 0.0
2014-Jun-09 20:33N 26°08' W 080°07'0 0.0
2014-Jun-09 19:33N 26°08' W 080°07'0 0.1
2014-Jun-09 18:34N 26°08' W 080°07'0 0.2
2014-Jun-09 17:33N 26°08' W 080°07'0 0.3
2014-Jun-09 16:33N 26°08' W 080°07'0 0.0
2014-Jun-09 15:33N 26°08' W 080°07'0 0.0
2014-Jun-09 14:33N 26°08' W 080°07'0 0.0
2014-Jun-09 13:33N 26°08' W 080°07'0 0.0
2014-Jun-09 12:33N 26°08' W 080°07'0 0.0
2014-Jun-09 11:33N 26°08' W 080°07'0 0.0
2014-Jun-09 10:33N 26°08' W 080°07'0 0.0
2014-Jun-09 09:33N 26°08' W 080°07'0 0.0
2014-Jun-09 08:33N 26°08' W 080°07'0 0.0
2014-Jun-09 07:33N 26°08' W 080°07'0 0.0
2014-Jun-09 06:33N 26°08' W 080°07'0 0.0
2014-Jun-09 05:33N 26°08' W 080°07'0 0.0
2014-Jun-09 04:33N 26°08' W 080°07'0 0.0
2014-Jun-09 03:33N 26°08' W 080°07'0 0.0
2014-Jun-09 02:33N 26°08' W 080°07'0 0.0
2014-Jun-09 01:33N 26°08' W 080°07'0 0.0
2014-Jun-09 00:33N 26°08' W 080°07'0 0.0
2014-Jun-08 23:33N 26°08' W 080°07'0 0.0
2014-Jun-08 22:33N 26°08' W 080°07'0 0.0
2014-Jun-08 21:33N 26°08' W 080°07'0 0.0
2014-Jun-08 20:33N 26°08' W 080°07'0 0.0
2014-Jun-08 19:33N 26°08' W 080°07'0 0.0
2014-Jun-08 18:33N 26°08' W 080°07'0 0.0
2014-Jun-08 17:33N 26°08' W 080°07'0 0.0
2014-Jun-08 16:33N 26°08' W 080°07'0 0.0
2014-Jun-08 15:33N 26°08' W 080°07'0 0.0
2014-Jun-08 14:33N 26°08' W 080°07'0 0.0
2014-Jun-08 13:33N 26°08' W 080°07'0 0.0
2014-Jun-08 12:33N 26°08' W 080°07'0 0.0
2014-Jun-08 11:33N 26°08' W 080°07'0 0.0
2014-Jun-08 10:33N 26°08' W 080°07'0 0.0
2014-Jun-08 09:33N 26°08' W 080°07'0 0.0
2014-Jun-08 08:33N 26°08' W 080°07'0 0.0
2014-Jun-08 07:33N 26°08' W 080°07'0 0.0
2014-Jun-08 06:33N 26°08' W 080°07'0 0.0
2014-Jun-08 05:33N 26°08' W 080°07'0 0.0
2014-Jun-08 04:33N 26°08' W 080°07'0 0.0
2014-Jun-08 03:33N 26°08' W 080°07'0 0.0
2014-Jun-08 02:33N 26°08' W 080°07'0 0.0
2014-Jun-08 01:33N 26°08' W 080°07'0 0.0
2014-Jun-08 00:33N 26°08' W 080°07'0 0.0
2014-Jun-07 23:33N 26°08' W 080°07'0 0.0
2014-Jun-07 22:33N 26°08' W 080°07'0 0.0
2014-Jun-07 21:33N 26°08' W 080°07'0 0.0
2014-Jun-07 20:33N 26°08' W 080°07'0 0.0
2014-Jun-07 19:33N 26°08' W 080°07'0 0.0
2014-Jun-07 18:33N 26°08' W 080°07'0 0.0
2014-Jun-07 17:33N 26°08' W 080°07'0 0.0
2014-Jun-07 16:33N 26°08' W 080°07'0 0.0
2014-Jun-07 15:33N 26°08' W 080°07'0 0.0
2014-Jun-07 14:33N 26°08' W 080°07'0 0.0
2014-Jun-07 13:33N 26°08' W 080°07'0 0.0
2014-Jun-07 12:33N 26°08' W 080°07'0 0.0
2014-Jun-07 11:33N 26°08' W 080°07'0 0.0
2014-Jun-07 10:33N 26°08' W 080°07'0 0.0
2014-Jun-07 09:33N 26°08' W 080°07'0 0.0
2014-Jun-07 08:33N 26°08' W 080°07'0 0.0
2014-Jun-07 07:33N 26°08' W 080°07'0 0.0
2014-Jun-07 06:33N 26°08' W 080°07'0 0.0
2014-Jun-07 05:33N 26°08' W 080°07'0 0.0
2014-Jun-07 04:33N 26°08' W 080°07'0 0.0
2014-Jun-07 03:33N 26°08' W 080°07'0 0.0
2014-Jun-07 02:33N 26°08' W 080°07'0 0.0
2014-Jun-07 01:33N 26°08' W 080°07'0 0.0
2014-Jun-07 00:33N 26°08' W 080°07'0 0.0
2014-Jun-06 23:33N 26°08' W 080°07'0 0.0
2014-Jun-06 22:33N 26°08' W 080°07'0 0.0
2014-Jun-06 21:33N 26°08' W 080°07'0 0.0
2014-Jun-06 20:33N 26°08' W 080°07'0 0.0
2014-Jun-06 19:33N 26°08' W 080°07'0 0.0
2014-Jun-06 18:33N 26°08' W 080°07'0 0.0
2014-Jun-06 17:33N 26°08' W 080°07'0 0.0
2014-Jun-06 16:33N 26°08' W 080°07'0 0.0
2014-Jun-06 15:33N 26°08' W 080°07'0 0.0
2014-Jun-06 14:33N 26°08' W 080°07'0 0.0
2014-Jun-06 13:33N 26°08' W 080°07'0 0.0
2014-Jun-06 12:33N 26°08' W 080°07'0 0.0
2014-Jun-06 11:33N 26°08' W 080°07'0 0.0
2014-Jun-06 10:33N 26°08' W 080°07'0 0.0
2014-Jun-06 09:33N 26°08' W 080°07'0 0.0
2014-Jun-06 08:33N 26°08' W 080°07'0 0.0
2014-Jun-06 07:33N 26°08' W 080°07'0 0.0
2014-Jun-06 06:33N 26°08' W 080°07'0 0.0
2014-Jun-06 05:33N 26°08' W 080°07'  
Track history (hours):
 
Tides and Currents Weather Stations Pressure Air Temp Water Temp Dewpoint Dewpoint Depression Visibility Wind Speed Wind Dir Waves Ship Positions

M/V Sirenuse

Last reported at 2014-Jun-16 05:32 UTC. Time now 2014-Oct-25 13:26 UTC.
Position N 42°58' W 070°24'.
Warning: this ship's position is months out of date.

Length 42 m; draft 8 m.

Type: Pleasure craft. MMSI: 319024900.

Date/timePositionNaut miles runAvg speedWind from/ knotsBaromVisibWave heightAir tempDewpointWater temp
2014-Jun-16 05:32N 42°58' W 070°24'93 9.0
2014-Jun-15 19:09N 41°28' W 070°57'15 9.5
2014-Jun-15 17:33N 41°23' W 071°16'10 9.7
2014-Jun-15 16:33N 41°21' W 071°29'9 9.2
2014-Jun-15 15:33N 41°18' W 071°41'9 9.2
2014-Jun-15 14:33N 41°16' W 071°53'8 8.2
2014-Jun-15 13:33N 41°14' W 072°03'8 8.4
2014-Jun-15 12:33N 41°12' W 072°14'9 9.3
2014-Jun-15 11:33N 41°10' W 072°26'10 9.7
2014-Jun-15 10:33N 41°08' W 072°39'10 9.9
2014-Jun-15 09:33N 41°05' W 072°51'10 9.8
2014-Jun-15 08:33N 41°03' W 073°04'10 9.9
2014-Jun-15 07:33N 41°01' W 073°17'10 9.6
2014-Jun-15 06:33N 40°58' W 073°29'66 8.1
2014-Jun-14 22:26N 39°57' W 074°02'8 9.5
2014-Jun-14 21:33N 39°49' W 074°02'7 7.5
2014-Jun-14 20:33N 39°42' W 074°06'10 9.8
2014-Jun-14 19:33N 39°33' W 074°11'  
2014-Jun-11 14:34N 26°35' W 079°45'1413.4
2014-Jun-11 13:33N 26°23' W 079°51'1313.1
2014-Jun-11 12:33N 26°12' W 079°60'9 8.9
2014-Jun-11 11:33N 26°06' W 080°07'2 1.5
2014-Jun-11 10:33N 26°08' W 080°07'0 0.0
2014-Jun-11 09:33N 26°08' W 080°07'0 0.0
2014-Jun-11 08:33N 26°08' W 080°07'0 0.0
2014-Jun-11 07:33N 26°08' W 080°07'0 0.0
2014-Jun-11 06:33N 26°08' W 080°07'0 0.0
2014-Jun-11 05:33N 26°08' W 080°07'0 0.0
2014-Jun-11 04:33N 26°08' W 080°07'0 0.0
2014-Jun-11 03:33N 26°08' W 080°07'0 0.0
2014-Jun-11 02:33N 26°08' W 080°07'0 0.0
2014-Jun-11 01:33N 26°08' W 080°07'0 0.0
2014-Jun-11 00:33N 26°08' W 080°07'0 0.0
2014-Jun-10 23:33N 26°08' W 080°07'0 0.0
2014-Jun-10 22:33N 26°08' W 080°07'0 0.0
2014-Jun-10 21:33N 26°08' W 080°07'0 0.0
2014-Jun-10 20:33N 26°08' W 080°07'0 0.0
2014-Jun-10 19:33N 26°08' W 080°07'0 0.0
2014-Jun-10 18:33N 26°08' W 080°07'0 0.0
2014-Jun-10 17:33N 26°08' W 080°07'0 0.0
2014-Jun-10 16:33N 26°08' W 080°07'0 0.0
2014-Jun-10 15:33N 26°08' W 080°07'0 0.0
2014-Jun-10 14:33N 26°08' W 080°07'0 0.0
2014-Jun-10 13:33N 26°08' W 080°07'0 0.0
2014-Jun-10 12:33N 26°08' W 080°07'0 0.0
2014-Jun-10 11:33N 26°08' W 080°07'0 0.0
2014-Jun-10 10:33N 26°08' W 080°07'0 0.0
2014-Jun-10 09:34N 26°08' W 080°07'0 0.0
2014-Jun-10 08:33N 26°08' W 080°07'0 0.0
2014-Jun-10 07:33N 26°08' W 080°07'0 0.0
2014-Jun-10 06:33N 26°08' W 080°07'0 0.0
2014-Jun-10 03:33N 26°08' W 080°07'0 0.0
2014-Jun-10 02:33N 26°08' W 080°07'0 0.0
2014-Jun-10 01:33N 26°08' W 080°07'0 0.0
2014-Jun-10 00:33N 26°08' W 080°07'0 0.0
2014-Jun-09 23:33N 26°08' W 080°07'0 0.0
2014-Jun-09 22:33N 26°08' W 080°07'0 0.0
2014-Jun-09 21:33N 26°08' W 080°07'0 0.0
2014-Jun-09 20:33N 26°08' W 080°07'0 0.0
2014-Jun-09 19:33N 26°08' W 080°07'0 0.1
2014-Jun-09 18:34N 26°08' W 080°07'0 0.2
2014-Jun-09 17:33N 26°08' W 080°07'0 0.3
2014-Jun-09 16:33N 26°08' W 080°07'0 0.0
2014-Jun-09 15:33N 26°08' W 080°07'0 0.0
2014-Jun-09 14:33N 26°08' W 080°07'0 0.0
2014-Jun-09 13:33N 26°08' W 080°07'0 0.0
2014-Jun-09 12:33N 26°08' W 080°07'0 0.0
2014-Jun-09 11:33N 26°08' W 080°07'0 0.0
2014-Jun-09 10:33N 26°08' W 080°07'0 0.0
2014-Jun-09 09:33N 26°08' W 080°07'0 0.0
2014-Jun-09 08:33N 26°08' W 080°07'0 0.0
2014-Jun-09 07:33N 26°08' W 080°07'0 0.0
2014-Jun-09 06:33N 26°08' W 080°07'0 0.0
2014-Jun-09 05:33N 26°08' W 080°07'0 0.0
2014-Jun-09 04:33N 26°08' W 080°07'0 0.0
2014-Jun-09 03:33N 26°08' W 080°07'0 0.0
2014-Jun-09 02:33N 26°08' W 080°07'0 0.0
2014-Jun-09 01:33N 26°08' W 080°07'0 0.0
2014-Jun-09 00:33N 26°08' W 080°07'0 0.0
2014-Jun-08 23:33N 26°08' W 080°07'0 0.0
2014-Jun-08 22:33N 26°08' W 080°07'0 0.0
2014-Jun-08 21:33N 26°08' W 080°07'0 0.0
2014-Jun-08 20:33N 26°08' W 080°07'0 0.0
2014-Jun-08 19:33N 26°08' W 080°07'0 0.0
2014-Jun-08 18:33N 26°08' W 080°07'0 0.0
2014-Jun-08 17:33N 26°08' W 080°07'0 0.0
2014-Jun-08 16:33N 26°08' W 080°07'0 0.0
2014-Jun-08 15:33N 26°08' W 080°07'0 0.0
2014-Jun-08 14:33N 26°08' W 080°07'0 0.0
2014-Jun-08 13:33N 26°08' W 080°07'0 0.0
2014-Jun-08 12:33N 26°08' W 080°07'0 0.0
2014-Jun-08 11:33N 26°08' W 080°07'0 0.0
2014-Jun-08 10:33N 26°08' W 080°07'0 0.0
2014-Jun-08 09:33N 26°08' W 080°07'0 0.0
2014-Jun-08 08:33N 26°08' W 080°07'0 0.0
2014-Jun-08 07:33N 26°08' W 080°07'0 0.0
2014-Jun-08 06:33N 26°08' W 080°07'0 0.0
2014-Jun-08 05:33N 26°08' W 080°07'0 0.0
2014-Jun-08 04:33N 26°08' W 080°07'0 0.0
2014-Jun-08 03:33N 26°08' W 080°07'0 0.0
2014-Jun-08 02:33N 26°08' W 080°07'0 0.0
2014-Jun-08 01:33N 26°08' W 080°07'0 0.0
2014-Jun-08 00:33N 26°08' W 080°07'0 0.0
2014-Jun-07 23:33N 26°08' W 080°07'0 0.0
2014-Jun-07 22:33N 26°08' W 080°07'0 0.0
2014-Jun-07 21:33N 26°08' W 080°07'0 0.0
2014-Jun-07 20:33N 26°08' W 080°07'0 0.0
2014-Jun-07 19:33N 26°08' W 080°07'0 0.0
2014-Jun-07 18:33N 26°08' W 080°07'0 0.0
2014-Jun-07 17:33N 26°08' W 080°07'0 0.0
2014-Jun-07 16:33N 26°08' W 080°07'0 0.0
2014-Jun-07 15:33N 26°08' W 080°07'0 0.0
2014-Jun-07 14:33N 26°08' W 080°07'0 0.0
2014-Jun-07 13:33N 26°08' W 080°07'0 0.0
2014-Jun-07 12:33N 26°08' W 080°07'0 0.0
2014-Jun-07 11:33N 26°08' W 080°07'0 0.0
2014-Jun-07 10:33N 26°08' W 080°07'0 0.0
2014-Jun-07 09:33N 26°08' W 080°07'0 0.0
2014-Jun-07 08:33N 26°08' W 080°07'0 0.0
2014-Jun-07 07:33N 26°08' W 080°07'0 0.0
2014-Jun-07 06:33N 26°08' W 080°07'0 0.0
2014-Jun-07 05:33N 26°08' W 080°07'0 0.0
2014-Jun-07 04:33N 26°08' W 080°07'0 0.0
2014-Jun-07 03:33N 26°08' W 080°07'0 0.0
2014-Jun-07 02:33N 26°08' W 080°07'0 0.0
2014-Jun-07 01:33N 26°08' W 080°07'0 0.0
2014-Jun-07 00:33N 26°08' W 080°07'0 0.0
2014-Jun-06 23:33N 26°08' W 080°07'0 0.0
2014-Jun-06 22:33N 26°08' W 080°07'0 0.0
2014-Jun-06 21:33N 26°08' W 080°07'0 0.0
2014-Jun-06 20:33N 26°08' W 080°07'0 0.0
2014-Jun-06 19:33N 26°08' W 080°07'0 0.0
2014-Jun-06 18:33N 26°08' W 080°07'0 0.0
2014-Jun-06 17:33N 26°08' W 080°07'0 0.0
2014-Jun-06 16:33N 26°08' W 080°07'0 0.0
2014-Jun-06 15:33N 26°08' W 080°07'0 0.0
2014-Jun-06 14:33N 26°08' W 080°07'0 0.0
2014-Jun-06 13:33N 26°08' W 080°07'0 0.0
2014-Jun-06 12:33N 26°08' W 080°07'0 0.0
2014-Jun-06 11:33N 26°08' W 080°07'0 0.0
2014-Jun-06 10:33N 26°08' W 080°07'0 0.0
2014-Jun-06 09:33N 26°08' W 080°07'0 0.0
2014-Jun-06 08:33N 26°08' W 080°07'0 0.0
2014-Jun-06 07:33N 26°08' W 080°07'0 0.0
2014-Jun-06 06:33N 26°08' W 080°07'0 0.0
2014-Jun-06 05:33N 26°08' W 080°07'  

Dump ship's entire track history